sensor_id;sensor_type;location;lat;lon;timestamp;P1;durP1;ratioP1;P2;durP2;ratioP2
33593;SDS011;19920;52.242;20.940;2023-04-25T00:00:45;16.95;;;13.80;;
33593;SDS011;19920;52.242;20.940;2023-04-25T00:03:11;16.55;;;14.13;;
33593;SDS011;19920;52.242;20.940;2023-04-25T00:05:37;21.40;;;14.68;;
33593;SDS011;19920;52.242;20.940;2023-04-25T00:08:03;17.13;;;14.05;;
33593;SDS011;19920;52.242;20.940;2023-04-25T00:10:29;19.05;;;14.40;;
33593;SDS011;19920;52.242;20.940;2023-04-25T00:12:54;18.90;;;15.13;;
33593;SDS011;19920;52.242;20.940;2023-04-25T00:15:20;19.27;;;14.77;;
33593;SDS011;19920;52.242;20.940;2023-04-25T00:17:46;19.77;;;14.30;;
33593;SDS011;19920;52.242;20.940;2023-04-25T00:20:12;19.15;;;14.45;;
33593;SDS011;19920;52.242;20.940;2023-04-25T00:22:38;19.85;;;15.15;;
33593;SDS011;19920;52.242;20.940;2023-04-25T00:25:04;18.02;;;14.85;;
33593;SDS011;19920;52.242;20.940;2023-04-25T00:27:31;19.65;;;15.68;;
33593;SDS011;19920;52.242;20.940;2023-04-25T00:29:57;20.08;;;15.90;;
33593;SDS011;19920;52.242;20.940;2023-04-25T00:32:22;20.88;;;15.02;;
33593;SDS011;19920;52.242;20.940;2023-04-25T00:34:48;22.55;;;16.08;;
33593;SDS011;19920;52.242;20.940;2023-04-25T00:37:13;22.33;;;15.82;;
33593;SDS011;19920;52.242;20.940;2023-04-25T00:39:39;19.15;;;15.77;;
33593;SDS011;19920;52.242;20.940;2023-04-25T00:42:05;22.33;;;15.93;;
33593;SDS011;19920;52.242;20.940;2023-04-25T00:44:31;20.05;;;15.65;;
33593;SDS011;19920;52.242;20.940;2023-04-25T00:46:57;20.25;;;16.02;;
33593;SDS011;19920;52.242;20.940;2023-04-25T00:49:23;25.10;;;17.02;;
33593;SDS011;19920;52.242;20.940;2023-04-25T00:51:48;22.85;;;16.65;;
33593;SDS011;19920;52.242;20.940;2023-04-25T00:54:14;19.15;;;16.63;;
33593;SDS011;19920;52.242;20.940;2023-04-25T00:56:41;19.27;;;16.17;;
33593;SDS011;19920;52.242;20.940;2023-04-25T00:59:07;22.63;;;16.33;;
33593;SDS011;19920;52.242;20.940;2023-04-25T01:01:34;22.08;;;16.35;;
33593;SDS011;19920;52.242;20.940;2023-04-25T01:04:01;21.20;;;16.58;;
33593;SDS011;19920;52.242;20.940;2023-04-25T01:06:27;19.67;;;15.82;;
33593;SDS011;19920;52.242;20.940;2023-04-25T01:08:53;20.40;;;16.50;;
33593;SDS011;19920;52.242;20.940;2023-04-25T01:11:19;21.30;;;15.82;;
33593;SDS011;19920;52.242;20.940;2023-04-25T01:13:44;22.00;;;16.10;;
33593;SDS011;19920;52.242;20.940;2023-04-25T01:16:10;20.83;;;16.05;;
33593;SDS011;19920;52.242;20.940;2023-04-25T01:18:37;20.77;;;16.42;;
33593;SDS011;19920;52.242;20.940;2023-04-25T01:21:11;19.88;;;15.95;;
33593;SDS011;19920;52.242;20.940;2023-04-25T01:23:38;22.17;;;16.45;;
33593;SDS011;19920;52.242;20.940;2023-04-25T01:26:06;20.08;;;15.98;;
33593;SDS011;19920;52.242;20.940;2023-04-25T01:28:33;20.58;;;16.15;;
33593;SDS011;19920;52.242;20.940;2023-04-25T01:30:59;19.17;;;16.10;;
33593;SDS011;19920;52.242;20.940;2023-04-25T01:33:26;20.58;;;15.65;;
33593;SDS011;19920;52.242;20.940;2023-04-25T01:35:52;21.35;;;16.63;;
33593;SDS011;19920;52.242;20.940;2023-04-25T01:38:17;20.73;;;16.45;;
33593;SDS011;19920;52.242;20.940;2023-04-25T01:40:43;19.05;;;15.95;;
33593;SDS011;19920;52.242;20.940;2023-04-25T01:43:10;18.83;;;15.88;;
33593;SDS011;19920;52.242;20.940;2023-04-25T01:45:40;21.20;;;16.23;;
33593;SDS011;19920;52.242;20.940;2023-04-25T01:48:09;22.88;;;16.60;;
33593;SDS011;19920;52.242;20.940;2023-04-25T01:50:37;19.75;;;16.25;;
33593;SDS011;19920;52.242;20.940;2023-04-25T01:53:04;20.83;;;16.30;;
33593;SDS011;19920;52.242;20.940;2023-04-25T01:55:30;21.08;;;15.82;;
33593;SDS011;19920;52.242;20.940;2023-04-25T01:57:56;19.80;;;15.98;;
33593;SDS011;19920;52.242;20.940;2023-04-25T02:00:22;18.00;;;15.88;;
33593;SDS011;19920;52.242;20.940;2023-04-25T02:02:48;18.42;;;15.82;;
33593;SDS011;19920;52.242;20.940;2023-04-25T02:05:15;20.27;;;16.55;;
33593;SDS011;19920;52.242;20.940;2023-04-25T02:07:41;21.05;;;15.57;;
33593;SDS011;19920;52.242;20.940;2023-04-25T02:10:07;21.00;;;15.98;;
33593;SDS011;19920;52.242;20.940;2023-04-25T02:12:33;18.70;;;15.05;;
33593;SDS011;19920;52.242;20.940;2023-04-25T02:15:00;20.40;;;15.95;;
33593;SDS011;19920;52.242;20.940;2023-04-25T02:17:25;17.83;;;14.98;;
33593;SDS011;19920;52.242;20.940;2023-04-25T02:19:51;20.73;;;14.82;;
33593;SDS011;19920;52.242;20.940;2023-04-25T02:22:17;20.38;;;14.73;;
33593;SDS011;19920;52.242;20.940;2023-04-25T02:24:42;19.35;;;14.40;;
33593;SDS011;19920;52.242;20.940;2023-04-25T02:27:08;19.80;;;14.55;;
33593;SDS011;19920;52.242;20.940;2023-04-25T02:29:34;18.55;;;14.32;;
33593;SDS011;19920;52.242;20.940;2023-04-25T02:31:59;16.83;;;13.80;;
33593;SDS011;19920;52.242;20.940;2023-04-25T02:34:25;18.65;;;14.60;;
33593;SDS011;19920;52.242;20.940;2023-04-25T02:36:51;18.23;;;13.63;;
33593;SDS011;19920;52.242;20.940;2023-04-25T02:39:16;18.88;;;13.73;;
33593;SDS011;19920;52.242;20.940;2023-04-25T02:41:42;18.45;;;14.23;;
33593;SDS011;19920;52.242;20.940;2023-04-25T02:44:08;18.30;;;13.85;;
33593;SDS011;19920;52.242;20.940;2023-04-25T02:46:34;19.40;;;14.50;;
33593;SDS011;19920;52.242;20.940;2023-04-25T02:48:59;22.17;;;14.60;;
33593;SDS011;19920;52.242;20.940;2023-04-25T02:51:25;18.85;;;13.65;;
33593;SDS011;19920;52.242;20.940;2023-04-25T02:53:51;18.05;;;13.52;;
33593;SDS011;19920;52.242;20.940;2023-04-25T02:56:16;17.58;;;12.93;;
33593;SDS011;19920;52.242;20.940;2023-04-25T02:58:42;24.08;;;13.20;;
33593;SDS011;19920;52.242;20.940;2023-04-25T03:01:08;15.60;;;12.85;;
33593;SDS011;19920;52.242;20.940;2023-04-25T03:03:33;17.85;;;12.35;;
33593;SDS011;19920;52.242;20.940;2023-04-25T03:05:59;17.05;;;12.02;;
33593;SDS011;19920;52.242;20.940;2023-04-25T03:08:25;16.45;;;12.05;;
33593;SDS011;19920;52.242;20.940;2023-04-25T03:10:54;13.85;;;11.20;;
33593;SDS011;19920;52.242;20.940;2023-04-25T03:13:20;16.63;;;12.30;;
33593;SDS011;19920;52.242;20.940;2023-04-25T03:15:46;16.08;;;11.25;;
33593;SDS011;19920;52.242;20.940;2023-04-25T03:18:11;16.05;;;12.27;;
33593;SDS011;19920;52.242;20.940;2023-04-25T03:20:37;16.15;;;11.80;;
33593;SDS011;19920;52.242;20.940;2023-04-25T03:23:04;15.07;;;11.90;;
33593;SDS011;19920;52.242;20.940;2023-04-25T03:25:30;14.85;;;11.85;;
33593;SDS011;19920;52.242;20.940;2023-04-25T03:27:56;16.55;;;11.90;;
33593;SDS011;19920;52.242;20.940;2023-04-25T03:30:21;13.73;;;11.30;;
33593;SDS011;19920;52.242;20.940;2023-04-25T03:32:47;14.02;;;10.88;;
33593;SDS011;19920;52.242;20.940;2023-04-25T03:35:13;15.82;;;10.75;;
33593;SDS011;19920;52.242;20.940;2023-04-25T03:37:38;15.93;;;11.27;;
33593;SDS011;19920;52.242;20.940;2023-04-25T03:40:05;16.63;;;11.93;;
33593;SDS011;19920;52.242;20.940;2023-04-25T03:42:31;13.75;;;11.38;;
33593;SDS011;19920;52.242;20.940;2023-04-25T03:44:57;13.38;;;10.95;;
33593;SDS011;19920;52.242;20.940;2023-04-25T03:47:22;13.98;;;11.05;;
33593;SDS011;19920;52.242;20.940;2023-04-25T03:49:48;14.50;;;10.73;;
33593;SDS011;19920;52.242;20.940;2023-04-25T03:52:16;14.57;;;10.60;;
33593;SDS011;19920;52.242;20.940;2023-04-25T03:54:43;14.32;;;11.18;;
33593;SDS011;19920;52.242;20.940;2023-04-25T03:57:08;13.55;;;10.63;;
33593;SDS011;19920;52.242;20.940;2023-04-25T03:59:35;12.23;;;9.60;;
33593;SDS011;19920;52.242;20.940;2023-04-25T04:02:02;13.43;;;9.90;;
33593;SDS011;19920;52.242;20.940;2023-04-25T04:04:27;12.82;;;9.65;;
33593;SDS011;19920;52.242;20.940;2023-04-25T04:06:53;12.77;;;9.57;;
33593;SDS011;19920;52.242;20.940;2023-04-25T04:09:19;13.32;;;9.38;;
33593;SDS011;19920;52.242;20.940;2023-04-25T04:11:45;12.20;;;9.43;;
33593;SDS011;19920;52.242;20.940;2023-04-25T04:14:11;13.52;;;9.05;;
33593;SDS011;19920;52.242;20.940;2023-04-25T04:16:36;11.60;;;8.77;;
33593;SDS011;19920;52.242;20.940;2023-04-25T04:19:02;12.57;;;9.40;;
33593;SDS011;19920;52.242;20.940;2023-04-25T04:21:28;13.50;;;9.02;;
33593;SDS011;19920;52.242;20.940;2023-04-25T04:23:54;12.35;;;9.00;;
33593;SDS011;19920;52.242;20.940;2023-04-25T04:26:20;10.98;;;8.65;;
33593;SDS011;19920;52.242;20.940;2023-04-25T04:28:49;8.77;;;7.70;;
33593;SDS011;19920;52.242;20.940;2023-04-25T04:31:19;10.45;;;8.30;;
33593;SDS011;19920;52.242;20.940;2023-04-25T04:33:46;11.00;;;8.50;;
33593;SDS011;19920;52.242;20.940;2023-04-25T04:36:12;12.07;;;9.52;;
33593;SDS011;19920;52.242;20.940;2023-04-25T04:38:38;11.30;;;8.70;;
33593;SDS011;19920;52.242;20.940;2023-04-25T04:41:05;12.75;;;9.90;;
33593;SDS011;19920;52.242;20.940;2023-04-25T04:43:31;12.02;;;10.10;;
33593;SDS011;19920;52.242;20.940;2023-04-25T04:45:58;12.02;;;9.27;;
33593;SDS011;19920;52.242;20.940;2023-04-25T04:48:25;13.27;;;9.35;;
33593;SDS011;19920;52.242;20.940;2023-04-25T04:50:51;11.23;;;9.35;;
33593;SDS011;19920;52.242;20.940;2023-04-25T04:53:17;12.52;;;10.27;;
33593;SDS011;19920;52.242;20.940;2023-04-25T04:55:42;14.68;;;10.93;;
33593;SDS011;19920;52.242;20.940;2023-04-25T04:58:08;14.30;;;11.10;;
33593;SDS011;19920;52.242;20.940;2023-04-25T05:00:34;12.70;;;10.98;;
33593;SDS011;19920;52.242;20.940;2023-04-25T05:02:59;14.43;;;11.20;;
33593;SDS011;19920;52.242;20.940;2023-04-25T05:05:25;13.02;;;10.05;;
33593;SDS011;19920;52.242;20.940;2023-04-25T05:07:51;12.93;;;10.63;;
33593;SDS011;19920;52.242;20.940;2023-04-25T05:10:17;12.93;;;10.05;;
33593;SDS011;19920;52.242;20.940;2023-04-25T05:12:43;13.57;;;11.23;;
33593;SDS011;19920;52.242;20.940;2023-04-25T05:15:09;13.07;;;11.02;;
33593;SDS011;19920;52.242;20.940;2023-04-25T05:17:36;13.25;;;10.93;;
33593;SDS011;19920;52.242;20.940;2023-04-25T05:20:01;14.13;;;11.60;;
33593;SDS011;19920;52.242;20.940;2023-04-25T05:22:27;13.13;;;11.25;;
33593;SDS011;19920;52.242;20.940;2023-04-25T05:24:53;13.20;;;11.25;;
33593;SDS011;19920;52.242;20.940;2023-04-25T05:27:19;13.30;;;10.98;;
33593;SDS011;19920;52.242;20.940;2023-04-25T05:29:45;13.10;;;11.38;;
33593;SDS011;19920;52.242;20.940;2023-04-25T05:32:11;15.13;;;11.02;;
33593;SDS011;19920;52.242;20.940;2023-04-25T05:34:36;12.38;;;10.02;;
33593;SDS011;19920;52.242;20.940;2023-04-25T05:37:02;14.07;;;11.25;;
33593;SDS011;19920;52.242;20.940;2023-04-25T05:39:28;11.30;;;9.55;;
33593;SDS011;19920;52.242;20.940;2023-04-25T05:41:54;12.25;;;10.18;;
33593;SDS011;19920;52.242;20.940;2023-04-25T05:44:20;13.50;;;10.88;;
33593;SDS011;19920;52.242;20.940;2023-04-25T05:46:46;11.95;;;10.38;;
33593;SDS011;19920;52.242;20.940;2023-04-25T05:49:12;14.75;;;11.80;;
33593;SDS011;19920;52.242;20.940;2023-04-25T05:51:38;13.30;;;11.90;;
33593;SDS011;19920;52.242;20.940;2023-04-25T05:54:03;15.27;;;13.10;;
33593;SDS011;19920;52.242;20.940;2023-04-25T05:56:29;14.02;;;12.43;;
33593;SDS011;19920;52.242;20.940;2023-04-25T05:58:55;15.30;;;12.35;;
33593;SDS011;19920;52.242;20.940;2023-04-25T06:01:22;16.05;;;12.10;;
33593;SDS011;19920;52.242;20.940;2023-04-25T06:03:48;14.25;;;11.77;;
33593;SDS011;19920;52.242;20.940;2023-04-25T06:06:13;13.48;;;12.15;;
33593;SDS011;19920;52.242;20.940;2023-04-25T06:08:40;14.25;;;11.40;;
33593;SDS011;19920;52.242;20.940;2023-04-25T06:11:05;14.70;;;12.57;;
33593;SDS011;19920;52.242;20.940;2023-04-25T06:13:31;14.40;;;12.90;;
33593;SDS011;19920;52.242;20.940;2023-04-25T06:15:57;14.60;;;12.60;;
33593;SDS011;19920;52.242;20.940;2023-04-25T06:18:22;14.23;;;12.73;;
33593;SDS011;19920;52.242;20.940;2023-04-25T06:20:48;15.77;;;13.80;;
33593;SDS011;19920;52.242;20.940;2023-04-25T06:23:14;14.95;;;13.45;;
33593;SDS011;19920;52.242;20.940;2023-04-25T06:25:39;14.57;;;13.05;;
33593;SDS011;19920;52.242;20.940;2023-04-25T06:28:05;13.93;;;12.32;;
33593;SDS011;19920;52.242;20.940;2023-04-25T06:30:30;16.40;;;13.48;;
33593;SDS011;19920;52.242;20.940;2023-04-25T06:32:56;16.02;;;11.60;;
33593;SDS011;19920;52.242;20.940;2023-04-25T06:35:22;14.80;;;10.93;;
33593;SDS011;19920;52.242;20.940;2023-04-25T06:37:47;14.85;;;10.02;;
33593;SDS011;19920;52.242;20.940;2023-04-25T06:40:13;10.30;;;8.90;;
33593;SDS011;19920;52.242;20.940;2023-04-25T06:42:39;10.50;;;8.38;;
33593;SDS011;19920;52.242;20.940;2023-04-25T06:45:05;10.40;;;8.30;;
33593;SDS011;19920;52.242;20.940;2023-04-25T06:47:31;11.80;;;9.30;;
33593;SDS011;19920;52.242;20.940;2023-04-25T06:49:57;11.88;;;9.15;;
33593;SDS011;19920;52.242;20.940;2023-04-25T06:52:22;12.07;;;9.20;;
33593;SDS011;19920;52.242;20.940;2023-04-25T06:54:48;11.40;;;9.30;;
33593;SDS011;19920;52.242;20.940;2023-04-25T06:57:14;13.32;;;10.10;;
33593;SDS011;19920;52.242;20.940;2023-04-25T06:59:39;12.50;;;9.88;;
33593;SDS011;19920;52.242;20.940;2023-04-25T07:02:05;11.60;;;9.27;;
33593;SDS011;19920;52.242;20.940;2023-04-25T07:04:31;12.50;;;9.50;;
33593;SDS011;19920;52.242;20.940;2023-04-25T07:06:56;13.38;;;10.07;;
33593;SDS011;19920;52.242;20.940;2023-04-25T07:09:22;11.35;;;10.13;;
33593;SDS011;19920;52.242;20.940;2023-04-25T07:11:48;12.55;;;10.32;;
33593;SDS011;19920;52.242;20.940;2023-04-25T07:14:13;10.48;;;9.27;;
33593;SDS011;19920;52.242;20.940;2023-04-25T07:16:40;10.27;;;8.85;;
33593;SDS011;19920;52.242;20.940;2023-04-25T07:19:05;11.43;;;9.60;;
33593;SDS011;19920;52.242;20.940;2023-04-25T07:21:31;10.68;;;9.23;;
33593;SDS011;19920;52.242;20.940;2023-04-25T07:23:57;11.63;;;9.00;;
33593;SDS011;19920;52.242;20.940;2023-04-25T07:26:23;10.20;;;9.10;;
33593;SDS011;19920;52.242;20.940;2023-04-25T07:28:49;11.90;;;9.05;;
33593;SDS011;19920;52.242;20.940;2023-04-25T07:31:16;9.63;;;8.20;;
33593;SDS011;19920;52.242;20.940;2023-04-25T07:33:43;10.32;;;9.05;;
33593;SDS011;19920;52.242;20.940;2023-04-25T07:36:12;8.90;;;7.75;;
33593;SDS011;19920;52.242;20.940;2023-04-25T07:38:38;11.05;;;8.50;;
33593;SDS011;19920;52.242;20.940;2023-04-25T07:41:04;10.77;;;8.15;;
33593;SDS011;19920;52.242;20.940;2023-04-25T07:43:30;10.75;;;8.00;;
33593;SDS011;19920;52.242;20.940;2023-04-25T07:45:55;9.65;;;8.52;;
33593;SDS011;19920;52.242;20.940;2023-04-25T07:48:21;9.45;;;7.80;;
33593;SDS011;19920;52.242;20.940;2023-04-25T07:50:47;10.55;;;7.97;;
33593;SDS011;19920;52.242;20.940;2023-04-25T07:53:13;9.38;;;7.70;;
33593;SDS011;19920;52.242;20.940;2023-04-25T07:55:39;8.30;;;6.90;;
33593;SDS011;19920;52.242;20.940;2023-04-25T07:58:08;9.70;;;7.35;;
33593;SDS011;19920;52.242;20.940;2023-04-25T08:00:35;8.93;;;8.02;;
33593;SDS011;19920;52.242;20.940;2023-04-25T08:03:01;11.13;;;8.80;;
33593;SDS011;19920;52.242;20.940;2023-04-25T08:05:27;10.57;;;9.57;;
33593;SDS011;19920;52.242;20.940;2023-04-25T08:07:53;11.40;;;9.00;;
33593;SDS011;19920;52.242;20.940;2023-04-25T08:10:19;10.45;;;9.48;;
33593;SDS011;19920;52.242;20.940;2023-04-25T08:12:45;9.10;;;8.20;;
33593;SDS011;19920;52.242;20.940;2023-04-25T08:15:11;13.27;;;10.80;;
33593;SDS011;19920;52.242;20.940;2023-04-25T08:17:38;11.57;;;8.50;;
33593;SDS011;19920;52.242;20.940;2023-04-25T08:20:04;9.20;;;8.23;;
33593;SDS011;19920;52.242;20.940;2023-04-25T08:22:31;10.13;;;5.80;;
33593;SDS011;19920;52.242;20.940;2023-04-25T08:24:56;7.22;;;5.95;;
33593;SDS011;19920;52.242;20.940;2023-04-25T08:27:22;7.40;;;6.20;;
33593;SDS011;19920;52.242;20.940;2023-04-25T08:29:48;6.70;;;5.70;;
33593;SDS011;19920;52.242;20.940;2023-04-25T08:32:14;9.88;;;5.90;;
33593;SDS011;19920;52.242;20.940;2023-04-25T08:34:40;7.00;;;6.30;;
33593;SDS011;19920;52.242;20.940;2023-04-25T08:37:07;7.03;;;6.32;;
33593;SDS011;19920;52.242;20.940;2023-04-25T08:39:34;7.68;;;6.97;;
33593;SDS011;19920;52.242;20.940;2023-04-25T08:42:01;9.45;;;7.13;;
33593;SDS011;19920;52.242;20.940;2023-04-25T08:44:31;8.40;;;7.57;;
33593;SDS011;19920;52.242;20.940;2023-04-25T08:46:59;9.18;;;8.27;;
33593;SDS011;19920;52.242;20.940;2023-04-25T08:52:03;9.10;;;7.95;;
33593;SDS011;19920;52.242;20.940;2023-04-25T08:54:31;9.68;;;7.63;;
33593;SDS011;19920;52.242;20.940;2023-04-25T08:56:59;8.85;;;5.88;;
33593;SDS011;19920;52.242;20.940;2023-04-25T08:59:30;7.03;;;6.32;;
33593;SDS011;19920;52.242;20.940;2023-04-25T09:01:56;6.22;;;5.47;;
33593;SDS011;19920;52.242;20.940;2023-04-25T09:04:22;6.47;;;5.88;;
33593;SDS011;19920;52.242;20.940;2023-04-25T09:06:48;6.85;;;6.15;;
33593;SDS011;19920;52.242;20.940;2023-04-25T09:09:13;9.20;;;7.53;;
33593;SDS011;19920;52.242;20.940;2023-04-25T09:11:39;9.45;;;8.55;;
33593;SDS011;19920;52.242;20.940;2023-04-25T09:14:15;9.27;;;8.38;;
33593;SDS011;19920;52.242;20.940;2023-04-25T09:16:57;10.85;;;9.70;;
33593;SDS011;19920;52.242;20.940;2023-04-25T09:19:25;11.98;;;10.00;;
33593;SDS011;19920;52.242;20.940;2023-04-25T09:21:53;12.65;;;11.30;;
33593;SDS011;19920;52.242;20.940;2023-04-25T09:25:07;13.60;;;10.43;;
33593;SDS011;19920;52.242;20.940;2023-04-25T09:27:09;13.05;;;11.23;;
33593;SDS011;19920;52.242;20.940;2023-04-25T09:29:36;12.70;;;11.40;;
33593;SDS011;19920;52.242;20.940;2023-04-25T09:32:10;11.85;;;10.55;;
33593;SDS011;19920;52.242;20.940;2023-04-25T09:34:44;12.25;;;10.95;;
33593;SDS011;19920;52.242;20.940;2023-04-25T09:37:21;11.82;;;10.63;;
33593;SDS011;19920;52.242;20.940;2023-04-25T09:39:47;12.98;;;11.73;;
33593;SDS011;19920;52.242;20.940;2023-04-25T09:42:15;15.45;;;12.45;;
33593;SDS011;19920;52.242;20.940;2023-04-25T09:44:45;15.57;;;12.77;;
33593;SDS011;19920;52.242;20.940;2023-04-25T09:47:12;14.13;;;12.65;;
33593;SDS011;19920;52.242;20.940;2023-04-25T09:49:40;13.90;;;12.45;;
33593;SDS011;19920;52.242;20.940;2023-04-25T09:52:14;15.52;;;12.95;;
33593;SDS011;19920;52.242;20.940;2023-04-25T09:54:41;17.40;;;14.65;;
33593;SDS011;19920;52.242;20.940;2023-04-25T09:57:28;18.42;;;14.63;;
33593;SDS011;19920;52.242;20.940;2023-04-25T09:59:53;16.58;;;14.73;;
33593;SDS011;19920;52.242;20.940;2023-04-25T10:02:20;15.40;;;13.45;;
33593;SDS011;19920;52.242;20.940;2023-04-25T10:04:52;16.85;;;15.00;;
33593;SDS011;19920;52.242;20.940;2023-04-25T10:07:25;16.10;;;14.50;;
33593;SDS011;19920;52.242;20.940;2023-04-25T10:09:59;16.13;;;13.60;;
33593;SDS011;19920;52.242;20.940;2023-04-25T10:12:32;15.18;;;13.60;;
33593;SDS011;19920;52.242;20.940;2023-04-25T10:14:58;16.48;;;14.55;;
33593;SDS011;19920;52.242;20.940;2023-04-25T10:17:25;14.38;;;12.98;;
33593;SDS011;19920;52.242;20.940;2023-04-25T10:19:54;17.50;;;14.93;;
33593;SDS011;19920;52.242;20.940;2023-04-25T10:22:23;15.57;;;13.98;;
33593;SDS011;19920;52.242;20.940;2023-04-25T10:24:55;17.30;;;14.23;;
33593;SDS011;19920;52.242;20.940;2023-04-25T10:27:22;14.57;;;13.07;;
33593;SDS011;19920;52.242;20.940;2023-04-25T10:29:59;16.05;;;13.73;;
33593;SDS011;19920;52.242;20.940;2023-04-25T10:32:33;16.58;;;14.57;;
33593;SDS011;19920;52.242;20.940;2023-04-25T10:35:12;14.80;;;13.30;;
33593;SDS011;19920;52.242;20.940;2023-04-25T10:40:38;26.27;;;20.50;;
33593;SDS011;19920;52.242;20.940;2023-04-25T10:45:59;15.60;;;13.13;;
33593;SDS011;19920;52.242;20.940;2023-04-25T10:48:26;16.42;;;13.18;;
33593;SDS011;19920;52.242;20.940;2023-04-25T10:53:34;15.98;;;14.27;;
33593;SDS011;19920;52.242;20.940;2023-04-25T10:56:00;18.30;;;16.33;;
33593;SDS011;19920;52.242;20.940;2023-04-25T10:58:26;25.40;;;19.92;;
33593;SDS011;19920;52.242;20.940;2023-04-25T11:00:52;25.48;;;20.83;;
33593;SDS011;19920;52.242;20.940;2023-04-25T11:03:17;23.38;;;20.15;;
33593;SDS011;19920;52.242;20.940;2023-04-25T11:05:46;23.38;;;19.92;;
33593;SDS011;19920;52.242;20.940;2023-04-25T11:08:14;19.70;;;17.60;;
33593;SDS011;19920;52.242;20.940;2023-04-25T11:10:53;18.33;;;16.05;;
33593;SDS011;19920;52.242;20.940;2023-04-25T11:13:22;16.45;;;14.73;;
33593;SDS011;19920;52.242;20.940;2023-04-25T11:15:53;16.67;;;13.90;;
33593;SDS011;19920;52.242;20.940;2023-04-25T11:18:19;16.33;;;13.80;;
33593;SDS011;19920;52.242;20.940;2023-04-25T11:20:46;14.05;;;12.57;;
33593;SDS011;19920;52.242;20.940;2023-04-25T11:23:13;13.88;;;12.32;;
33593;SDS011;19920;52.242;20.940;2023-04-25T11:25:40;14.88;;;13.38;;
33593;SDS011;19920;52.242;20.940;2023-04-25T11:28:06;15.00;;;13.60;;
33593;SDS011;19920;52.242;20.940;2023-04-25T11:30:31;14.93;;;13.43;;
33593;SDS011;19920;52.242;20.940;2023-04-25T11:32:57;15.90;;;14.30;;
33593;SDS011;19920;52.242;20.940;2023-04-25T11:35:22;19.27;;;14.60;;
33593;SDS011;19920;52.242;20.940;2023-04-25T11:37:50;15.88;;;14.18;;
33593;SDS011;19920;52.242;20.940;2023-04-25T11:40:16;15.38;;;13.88;;
33593;SDS011;19920;52.242;20.940;2023-04-25T11:42:45;15.60;;;13.95;;
33593;SDS011;19920;52.242;20.940;2023-04-25T11:45:12;13.10;;;11.80;;
33593;SDS011;19920;52.242;20.940;2023-04-25T11:47:38;14.25;;;11.60;;
33593;SDS011;19920;52.242;20.940;2023-04-25T11:50:04;13.32;;;11.93;;
33593;SDS011;19920;52.242;20.940;2023-04-25T11:52:38;12.80;;;11.52;;
33593;SDS011;19920;52.242;20.940;2023-04-25T11:55:09;13.20;;;11.90;;
33593;SDS011;19920;52.242;20.940;2023-04-25T11:57:37;12.77;;;11.48;;
33593;SDS011;19920;52.242;20.940;2023-04-25T12:02:46;9.18;;;7.85;;
33593;SDS011;19920;52.242;20.940;2023-04-25T12:05:13;9.48;;;8.20;;
33593;SDS011;19920;52.242;20.940;2023-04-25T12:07:41;8.68;;;7.82;;
33593;SDS011;19920;52.242;20.940;2023-04-25T12:10:08;9.05;;;7.28;;
33593;SDS011;19920;52.242;20.940;2023-04-25T12:12:36;7.85;;;6.85;;
33593;SDS011;19920;52.242;20.940;2023-04-25T12:15:35;9.77;;;8.00;;
33593;SDS011;19920;52.242;20.940;2023-04-25T12:17:54;9.93;;;8.15;;
33593;SDS011;19920;52.242;20.940;2023-04-25T12:20:20;8.18;;;7.30;;
33593;SDS011;19920;52.242;20.940;2023-04-25T12:22:49;8.73;;;7.67;;
33593;SDS011;19920;52.242;20.940;2023-04-25T12:30:59;11.68;;;8.35;;
33593;SDS011;19920;52.242;20.940;2023-04-25T12:33:29;8.50;;;6.17;;
33593;SDS011;19920;52.242;20.940;2023-04-25T12:35:56;7.05;;;5.78;;
33593;SDS011;19920;52.242;20.940;2023-04-25T12:40:52;6.07;;;5.45;;
33593;SDS011;19920;52.242;20.940;2023-04-25T12:43:18;6.00;;;5.40;;
33593;SDS011;19920;52.242;20.940;2023-04-25T12:45:46;6.45;;;5.43;;
33593;SDS011;19920;52.242;20.940;2023-04-25T12:48:13;9.52;;;5.80;;
33593;SDS011;19920;52.242;20.940;2023-04-25T12:50:39;6.75;;;5.18;;
33593;SDS011;19920;52.242;20.940;2023-04-25T12:53:06;5.75;;;5.15;;
33593;SDS011;19920;52.242;20.940;2023-04-25T12:55:31;5.97;;;5.38;;
33593;SDS011;19920;52.242;20.940;2023-04-25T12:57:57;6.07;;;5.47;;
33593;SDS011;19920;52.242;20.940;2023-04-25T13:00:23;6.65;;;5.50;;
33593;SDS011;19920;52.242;20.940;2023-04-25T13:02:48;6.55;;;5.32;;
33593;SDS011;19920;52.242;20.940;2023-04-25T13:05:14;7.72;;;5.70;;
33593;SDS011;19920;52.242;20.940;2023-04-25T13:07:40;5.82;;;5.22;;
33593;SDS011;19920;52.242;20.940;2023-04-25T13:10:06;8.80;;;5.82;;
33593;SDS011;19920;52.242;20.940;2023-04-25T13:12:32;6.70;;;5.72;;
33593;SDS011;19920;52.242;20.940;2023-04-25T13:14:58;6.60;;;5.50;;
33593;SDS011;19920;52.242;20.940;2023-04-25T13:17:24;6.80;;;5.45;;
33593;SDS011;19920;52.242;20.940;2023-04-25T13:19:49;5.22;;;4.72;;
33593;SDS011;19920;52.242;20.940;2023-04-25T13:22:15;8.60;;;6.88;;
33593;SDS011;19920;52.242;20.940;2023-04-25T13:24:42;7.15;;;6.45;;
33593;SDS011;19920;52.242;20.940;2023-04-25T13:27:08;7.63;;;6.60;;
33593;SDS011;19920;52.242;20.940;2023-04-25T13:29:33;8.70;;;7.80;;
33593;SDS011;19920;52.242;20.940;2023-04-25T13:32:00;7.30;;;6.55;;
33593;SDS011;19920;52.242;20.940;2023-04-25T13:34:27;9.40;;;7.25;;
33593;SDS011;19920;52.242;20.940;2023-04-25T13:36:54;7.28;;;6.57;;
33593;SDS011;19920;52.242;20.940;2023-04-25T13:39:20;6.90;;;5.70;;
33593;SDS011;19920;52.242;20.940;2023-04-25T13:41:45;7.53;;;5.80;;
33593;SDS011;19920;52.242;20.940;2023-04-25T13:44:11;7.60;;;6.40;;
33593;SDS011;19920;52.242;20.940;2023-04-25T13:46:37;6.85;;;5.43;;
33593;SDS011;19920;52.242;20.940;2023-04-25T13:49:03;6.22;;;5.38;;
33593;SDS011;19920;52.242;20.940;2023-04-25T13:51:29;7.07;;;5.82;;
33593;SDS011;19920;52.242;20.940;2023-04-25T13:53:55;7.22;;;6.00;;
33593;SDS011;19920;52.242;20.940;2023-04-25T13:56:21;6.72;;;6.13;;
33593;SDS011;19920;52.242;20.940;2023-04-25T13:58:48;6.40;;;5.32;;
33593;SDS011;19920;52.242;20.940;2023-04-25T14:01:15;5.95;;;5.22;;
33593;SDS011;19920;52.242;20.940;2023-04-25T14:03:40;6.25;;;5.60;;
33593;SDS011;19920;52.242;20.940;2023-04-25T14:06:07;5.07;;;4.57;;
33593;SDS011;19920;52.242;20.940;2023-04-25T14:08:33;6.70;;;3.83;;
33593;SDS011;19920;52.242;20.940;2023-04-25T14:10:59;5.30;;;4.53;;
33593;SDS011;19920;52.242;20.940;2023-04-25T14:13:25;5.75;;;4.60;;
33593;SDS011;19920;52.242;20.940;2023-04-25T14:15:51;7.60;;;5.00;;
33593;SDS011;19920;52.242;20.940;2023-04-25T14:18:17;5.05;;;4.35;;
33593;SDS011;19920;52.242;20.940;2023-04-25T14:20:43;5.55;;;4.25;;
33593;SDS011;19920;52.242;20.940;2023-04-25T14:23:09;5.43;;;3.90;;
33593;SDS011;19920;52.242;20.940;2023-04-25T14:25:34;5.38;;;4.15;;
33593;SDS011;19920;52.242;20.940;2023-04-25T14:28:01;4.88;;;4.18;;
33593;SDS011;19920;52.242;20.940;2023-04-25T14:30:26;8.23;;;3.88;;
33593;SDS011;19920;52.242;20.940;2023-04-25T14:32:52;5.55;;;4.00;;
33593;SDS011;19920;52.242;20.940;2023-04-25T14:35:18;6.60;;;4.90;;
33593;SDS011;19920;52.242;20.940;2023-04-25T14:37:44;4.70;;;4.20;;